sensor_id;sensor_type;location;lat;lon;timestamp;pressure;altitude;pressure_sealevel;temperature;humidity
75136;BME280;63707;52.212;9.540;2023-03-04T00:00:07;100710.41;;;1.55;100.00
75136;BME280;63707;52.212;9.540;2023-03-04T00:02:33;100711.81;;;1.80;100.00
75136;BME280;63707;52.212;9.540;2023-03-04T00:04:59;100705.88;;;1.86;100.00
75136;BME280;63707;52.212;9.540;2023-03-04T00:07:24;100713.09;;;1.86;100.00
75136;BME280;63707;52.212;9.540;2023-03-04T00:09:50;100711.00;;;1.59;100.00
75136;BME280;63707;52.212;9.540;2023-03-04T00:12:15;100704.72;;;1.79;100.00
75136;BME280;63707;52.212;9.540;2023-03-04T00:14:41;100709.25;;;2.09;100.00
75136;BME280;63707;52.212;9.540;2023-03-04T00:17:07;100705.00;;;2.07;100.00
75136;BME280;63707;52.212;9.540;2023-03-04T00:19:33;100709.63;;;1.95;100.00
75136;BME280;63707;52.212;9.540;2023-03-04T00:21:59;100698.50;;;2.09;100.00
75136;BME280;63707;52.212;9.540;2023-03-04T00:24:25;100703.56;;;2.03;100.00
75136;BME280;63707;52.212;9.540;2023-03-04T00:26:50;100707.97;;;2.04;100.00
75136;BME280;63707;52.212;9.540;2023-03-04T00:29:16;100699.59;;;1.97;100.00
75136;BME280;63707;52.212;9.540;2023-03-04T00:31:41;100702.16;;;1.99;100.00
75136;BME280;63707;52.212;9.540;2023-03-04T00:34:08;100705.75;;;2.18;100.00
75136;BME280;63707;52.212;9.540;2023-03-04T00:36:34;100709.09;;;2.01;100.00
75136;BME280;63707;52.212;9.540;2023-03-04T00:38:59;100711.09;;;2.09;100.00
75136;BME280;63707;52.212;9.540;2023-03-04T00:41:25;100700.50;;;2.17;100.00
75136;BME280;63707;52.212;9.540;2023-03-04T00:43:50;100707.13;;;2.03;100.00
75136;BME280;63707;52.212;9.540;2023-03-04T00:46:16;100709.16;;;2.20;100.00
75136;BME280;63707;52.212;9.540;2023-03-04T00:48:41;100713.38;;;2.13;100.00
75136;BME280;63707;52.212;9.540;2023-03-04T00:51:08;100711.81;;;2.11;100.00
75136;BME280;63707;52.212;9.540;2023-03-04T00:53:34;100708.31;;;2.30;100.00
75136;BME280;63707;52.212;9.540;2023-03-04T00:55:59;100706.16;;;2.14;100.00
75136;BME280;63707;52.212;9.540;2023-03-04T00:58:25;100696.41;;;2.22;100.00
75136;BME280;63707;52.212;9.540;2023-03-04T01:00:50;100707.34;;;2.31;100.00
75136;BME280;63707;52.212;9.540;2023-03-04T01:03:16;100704.34;;;2.24;100.00
75136;BME280;63707;52.212;9.540;2023-03-04T01:05:41;100691.88;;;2.23;100.00
75136;BME280;63707;52.212;9.540;2023-03-04T01:08:08;100698.41;;;2.30;100.00
75136;BME280;63707;52.212;9.540;2023-03-04T01:10:33;100704.47;;;2.22;100.00
75136;BME280;63707;52.212;9.540;2023-03-04T01:12:59;100697.44;;;2.31;100.00
75136;BME280;63707;52.212;9.540;2023-03-04T01:15:25;100689.94;;;2.35;100.00
75136;BME280;63707;52.212;9.540;2023-03-04T01:17:51;100688.22;;;2.34;100.00
75136;BME280;63707;52.212;9.540;2023-03-04T01:20:17;100688.22;;;2.34;100.00
75136;BME280;63707;52.212;9.540;2023-03-04T01:22:42;100689.50;;;2.30;100.00
75136;BME280;63707;52.212;9.540;2023-03-04T01:25:10;100683.41;;;2.28;100.00
75136;BME280;63707;52.212;9.540;2023-03-04T01:27:35;100681.41;;;2.20;100.00
75136;BME280;63707;52.212;9.540;2023-03-04T01:30:01;100682.16;;;2.32;100.00
75136;BME280;63707;52.212;9.540;2023-03-04T01:32:26;100674.63;;;2.26;100.00
75136;BME280;63707;52.212;9.540;2023-03-04T01:34:52;100677.59;;;2.22;100.00
75136;BME280;63707;52.212;9.540;2023-03-04T01:37:17;100665.47;;;2.38;100.00
75136;BME280;63707;52.212;9.540;2023-03-04T01:39:43;100660.81;;;2.40;100.00
75136;BME280;63707;52.212;9.540;2023-03-04T01:42:15;100663.78;;;2.37;100.00
75136;BME280;63707;52.212;9.540;2023-03-04T01:44:42;100669.16;;;2.37;100.00
75136;BME280;63707;52.212;9.540;2023-03-04T01:47:08;100663.31;;;2.32;100.00
75136;BME280;63707;52.212;9.540;2023-03-04T01:49:34;100656.09;;;2.22;100.00
75136;BME280;63707;52.212;9.540;2023-03-04T01:52:00;100645.19;;;2.24;100.00
75136;BME280;63707;52.212;9.540;2023-03-04T01:54:25;100644.34;;;2.33;100.00
75136;BME280;63707;52.212;9.540;2023-03-04T01:56:51;100632.75;;;2.23;100.00
75136;BME280;63707;52.212;9.540;2023-03-04T01:59:20;100638.97;;;2.24;100.00
75136;BME280;63707;52.212;9.540;2023-03-04T02:01:47;100626.66;;;2.31;100.00
75136;BME280;63707;52.212;9.540;2023-03-04T02:04:14;100628.94;;;2.26;100.00
75136;BME280;63707;52.212;9.540;2023-03-04T02:06:40;100633.59;;;2.33;100.00
75136;BME280;63707;52.212;9.540;2023-03-04T02:09:07;100625.81;;;2.30;100.00
75136;BME280;63707;52.212;9.540;2023-03-04T02:11:33;100626.09;;;2.27;100.00
75136;BME280;63707;52.212;9.540;2023-03-04T02:13:59;100609.41;;;2.24;100.00
75136;BME280;63707;52.212;9.540;2023-03-04T02:16:27;100619.00;;;2.16;100.00
75136;BME280;63707;52.212;9.540;2023-03-04T02:18:52;100623.84;;;2.32;100.00
75136;BME280;63707;52.212;9.540;2023-03-04T02:21:22;100614.50;;;2.36;100.00
75136;BME280;63707;52.212;9.540;2023-03-04T02:23:55;100609.69;;;2.30;100.00
75136;BME280;63707;52.212;9.540;2023-03-04T02:26:25;100597.50;;;2.36;100.00
75136;BME280;63707;52.212;9.540;2023-03-04T02:28:53;100605.91;;;2.42;100.00
75136;BME280;63707;52.212;9.540;2023-03-04T02:31:24;100607.88;;;2.40;100.00
75136;BME280;63707;52.212;9.540;2023-03-04T02:33:51;100598.25;;;2.47;100.00
75136;BME280;63707;52.212;9.540;2023-03-04T02:36:18;100594.72;;;2.47;100.00
75136;BME280;63707;52.212;9.540;2023-03-04T02:38:44;100601.50;;;2.41;100.00
75136;BME280;63707;52.212;9.540;2023-03-04T02:41:11;100597.56;;;2.45;100.00
75136;BME280;63707;52.212;9.540;2023-03-04T02:43:39;100602.66;;;2.48;100.00
75136;BME280;63707;52.212;9.540;2023-03-04T02:46:05;100594.00;;;2.55;100.00
75136;BME280;63707;52.212;9.540;2023-03-04T02:48:30;100605.91;;;2.52;100.00
75136;BME280;63707;52.212;9.540;2023-03-04T02:50:56;100593.59;;;2.49;100.00
75136;BME280;63707;52.212;9.540;2023-03-04T02:53:22;100601.09;;;2.46;100.00
75136;BME280;63707;52.212;9.540;2023-03-04T02:55:49;100597.53;;;2.55;100.00
75136;BME280;63707;52.212;9.540;2023-03-04T02:58:15;100598.97;;;2.59;100.00
75136;BME280;63707;52.212;9.540;2023-03-04T03:00:42;100596.56;;;2.56;100.00
75136;BME280;63707;52.212;9.540;2023-03-04T03:03:08;100587.91;;;2.52;100.00
75136;BME280;63707;52.212;9.540;2023-03-04T03:05:33;100590.47;;;2.54;100.00
75136;BME280;63707;52.212;9.540;2023-03-04T03:07:59;100595.00;;;2.44;100.00
75136;BME280;63707;52.212;9.540;2023-03-04T03:10:25;100580.81;;;2.71;100.00
75136;BME280;63707;52.212;9.540;2023-03-04T03:12:51;100578.84;;;2.73;100.00
75136;BME280;63707;52.212;9.540;2023-03-04T03:15:17;100579.00;;;2.62;100.00
75136;BME280;63707;52.212;9.540;2023-03-04T03:17:44;100575.59;;;2.60;100.00
75136;BME280;63707;52.212;9.540;2023-03-04T03:20:11;100585.38;;;2.61;100.00
75136;BME280;63707;52.212;9.540;2023-03-04T03:22:37;100574.59;;;2.61;100.00
75136;BME280;63707;52.212;9.540;2023-03-04T03:25:03;100576.31;;;2.52;100.00
75136;BME280;63707;52.212;9.540;2023-03-04T03:27:29;100575.19;;;2.45;100.00
75136;BME280;63707;52.212;9.540;2023-03-04T03:29:54;100577.59;;;2.58;100.00
75136;BME280;63707;52.212;9.540;2023-03-04T03:32:20;100570.75;;;2.73;100.00
75136;BME280;63707;52.212;9.540;2023-03-04T03:34:47;100569.91;;;2.72;100.00
75136;BME280;63707;52.212;9.540;2023-03-04T03:37:12;100573.44;;;2.73;100.00
75136;BME280;63707;52.212;9.540;2023-03-04T03:39:38;100569.06;;;2.72;100.00
75136;BME280;63707;52.212;9.540;2023-03-04T03:42:04;100572.91;;;2.69;100.00
75136;BME280;63707;52.212;9.540;2023-03-04T03:44:29;100575.44;;;2.71;100.00
75136;BME280;63707;52.212;9.540;2023-03-04T03:46:56;100573.03;;;2.68;100.00
75136;BME280;63707;52.212;9.540;2023-03-04T03:49:22;100566.66;;;2.69;100.00
75136;BME280;63707;52.212;9.540;2023-03-04T03:51:48;100573.72;;;2.79;100.00
75136;BME280;63707;52.212;9.540;2023-03-04T03:54:14;100566.09;;;2.75;100.00
75136;BME280;63707;52.212;9.540;2023-03-04T03:56:39;100572.34;;;2.66;100.00
75136;BME280;63707;52.212;9.540;2023-03-04T03:59:05;100575.00;;;2.75;100.00
75136;BME280;63707;52.212;9.540;2023-03-04T04:01:30;100564.69;;;2.71;100.00
75136;BME280;63707;52.212;9.540;2023-03-04T04:03:57;100564.25;;;2.66;100.00
75136;BME280;63707;52.212;9.540;2023-03-04T04:06:23;100561.72;;;2.64;100.00
75136;BME280;63707;52.212;9.540;2023-03-04T04:08:50;100563.69;;;2.62;100.00
75136;BME280;63707;52.212;9.540;2023-03-04T04:11:15;100558.31;;;2.62;100.00
75136;BME280;63707;52.212;9.540;2023-03-04T04:13:41;100565.25;;;2.65;100.00
75136;BME280;63707;52.212;9.540;2023-03-04T04:16:08;100552.53;;;2.57;100.00
75136;BME280;63707;52.212;9.540;2023-03-04T04:18:33;100554.38;;;2.57;100.00
75136;BME280;63707;52.212;9.540;2023-03-04T04:20:59;100555.34;;;2.56;100.00
75136;BME280;63707;52.212;9.540;2023-03-04T04:23:24;100564.56;;;2.53;100.00
75136;BME280;63707;52.212;9.540;2023-03-04T04:25:53;100553.25;;;2.49;100.00
75136;BME280;63707;52.212;9.540;2023-03-04T04:28:19;100562.44;;;2.57;100.00
75136;BME280;63707;52.212;9.540;2023-03-04T04:30:44;100553.66;;;2.55;100.00
75136;BME280;63707;52.212;9.540;2023-03-04T04:33:09;100560.03;;;2.53;100.00
75136;BME280;63707;52.212;9.540;2023-03-04T04:35:36;100563.56;;;2.54;100.00
75136;BME280;63707;52.212;9.540;2023-03-04T04:38:03;100564.84;;;2.50;100.00
75136;BME280;63707;52.212;9.540;2023-03-04T04:40:28;100551.13;;;2.43;100.00
75136;BME280;63707;52.212;9.540;2023-03-04T04:42:55;100556.22;;;2.37;100.00
75136;BME280;63707;52.212;9.540;2023-03-04T04:45:21;100555.66;;;2.43;100.00
75136;BME280;63707;52.212;9.540;2023-03-04T04:47:48;100543.75;;;2.45;100.00
75136;BME280;63707;52.212;9.540;2023-03-04T04:50:14;100541.22;;;2.44;100.00
75136;BME280;63707;52.212;9.540;2023-03-04T04:52:40;100540.66;;;2.40;100.00
75136;BME280;63707;52.212;9.540;2023-03-04T04:55:06;100542.78;;;2.37;100.00
75136;BME280;63707;52.212;9.540;2023-03-04T04:57:32;100544.03;;;2.33;100.00
75136;BME280;63707;52.212;9.540;2023-03-04T04:59:59;100538.63;;;2.33;100.00
75136;BME280;63707;52.212;9.540;2023-03-04T05:02:24;100542.47;;;2.30;100.00
75136;BME280;63707;52.212;9.540;2023-03-04T05:04:50;100541.19;;;2.25;100.00
75136;BME280;63707;52.212;9.540;2023-03-04T05:07:15;100536.38;;;2.28;100.00
75136;BME280;63707;52.212;9.540;2023-03-04T05:09:41;100543.03;;;2.34;100.00
75136;BME280;63707;52.212;9.540;2023-03-04T05:12:06;100534.72;;;2.37;100.00
75136;BME280;63707;52.212;9.540;2023-03-04T05:14:32;100524.47;;;2.69;100.00
75136;BME280;63707;52.212;9.540;2023-03-04T05:16:59;100538.63;;;2.33;100.00
75136;BME280;63707;52.212;9.540;2023-03-04T05:19:24;100526.22;;;3.44;100.00
75136;BME280;63707;52.212;9.540;2023-03-04T05:21:50;100529.28;;;2.66;100.00
75136;BME280;63707;52.212;9.540;2023-03-04T05:24:15;100537.53;;;2.45;100.00
75136;BME280;63707;52.212;9.540;2023-03-04T05:26:41;100536.81;;;2.33;100.00
75136;BME280;63707;52.212;9.540;2023-03-04T05:29:06;100535.69;;;2.26;100.00
75136;BME280;63707;52.212;9.540;2023-03-04T05:31:32;100538.38;;;2.26;100.00
75136;BME280;63707;52.212;9.540;2023-03-04T05:33:58;100539.78;;;2.20;100.00
75136;BME280;63707;52.212;9.540;2023-03-04T05:36:24;100531.44;;;2.14;100.00
75136;BME280;63707;52.212;9.540;2023-03-04T05:38:50;100529.16;;;2.09;100.00
75136;BME280;63707;52.212;9.540;2023-03-04T05:41:15;100533.28;;;2.13;100.00
75136;BME280;63707;52.212;9.540;2023-03-04T05:43:43;100524.34;;;2.13;100.00
75136;BME280;63707;52.212;9.540;2023-03-04T05:46:12;100530.16;;;2.08;100.00
75136;BME280;63707;52.212;9.540;2023-03-04T05:48:38;100529.88;;;2.11;100.00
75136;BME280;63707;52.212;9.540;2023-03-04T05:51:05;100528.47;;;2.07;100.00
75136;BME280;63707;52.212;9.540;2023-03-04T05:53:31;100529.44;;;2.06;100.00
75136;BME280;63707;52.212;9.540;2023-03-04T05:55:57;100525.63;;;2.09;100.00
75136;BME280;63707;52.212;9.540;2023-03-04T05:58:24;100539.78;;;2.11;100.00
75136;BME280;63707;52.212;9.540;2023-03-04T06:00:50;100537.94;;;2.11;100.00
75136;BME280;63707;52.212;9.540;2023-03-04T06:03:17;100534.81;;;2.06;100.00
75136;BME280;63707;52.212;9.540;2023-03-04T06:05:43;100533.56;;;2.10;100.00
75136;BME280;63707;52.212;9.540;2023-03-04T06:08:11;100535.69;;;2.07;100.00
75136;BME280;63707;52.212;9.540;2023-03-04T06:10:38;100540.91;;;2.08;100.00
75136;BME280;63707;52.212;9.540;2023-03-04T06:13:04;100529.44;;;2.06;100.00
75136;BME280;63707;52.212;9.540;2023-03-04T06:15:30;100530.16;;;2.08;100.00
75136;BME280;63707;52.212;9.540;2023-03-04T06:17:56;100534.13;;;2.04;100.00
75136;BME280;63707;52.212;9.540;2023-03-04T06:20:22;100530.16;;;2.08;100.00
75136;BME280;63707;52.212;9.540;2023-03-04T06:22:47;100533.69;;;2.09;100.00
75136;BME280;63707;52.212;9.540;2023-03-04T06:25:15;100539.78;;;2.11;100.00
75136;BME280;63707;52.212;9.540;2023-03-04T06:27:40;100529.72;;;2.13;100.00
75136;BME280;63707;52.212;9.540;2023-03-04T06:30:07;100536.81;;;2.14;100.00
75136;BME280;63707;52.212;9.540;2023-03-04T06:32:32;100534.53;;;2.19;100.00
75136;BME280;63707;52.212;9.540;2023-03-04T06:34:58;100540.78;;;2.19;100.00
75136;BME280;63707;52.212;9.540;2023-03-04T06:37:23;100544.03;;;2.23;100.00
75136;BME280;63707;52.212;9.540;2023-03-04T06:39:49;100544.03;;;2.23;100.00
75136;BME280;63707;52.212;9.540;2023-03-04T06:42:16;100553.66;;;2.26;100.00
75136;BME280;63707;52.212;9.540;2023-03-04T06:44:42;100544.03;;;2.23;100.00
75136;BME280;63707;52.212;9.540;2023-03-04T06:47:07;100545.44;;;2.27;100.00
75136;BME280;63707;52.212;9.540;2023-03-04T06:49:33;100535.66;;;2.36;100.00
75136;BME280;63707;52.212;9.540;2023-03-04T06:51:58;100539.81;;;2.40;100.00
75136;BME280;63707;52.212;9.540;2023-03-04T06:54:24;100531.59;;;2.41;100.00
75136;BME280;63707;52.212;9.540;2023-03-04T06:56:49;100535.97;;;2.42;100.00
75136;BME280;63707;52.212;9.540;2023-03-04T06:59:16;100535.69;;;2.45;100.00
75136;BME280;63707;52.212;9.540;2023-03-04T07:01:42;100543.63;;;2.47;100.00
75136;BME280;63707;52.212;9.540;2023-03-04T07:04:07;100533.56;;;2.49;100.00
75136;BME280;63707;52.212;9.540;2023-03-04T07:06:33;100535.81;;;2.53;100.00
75136;BME280;63707;52.212;9.540;2023-03-04T07:08:59;100534.69;;;2.46;100.00
75136;BME280;63707;52.212;9.540;2023-03-04T07:11:24;100535.56;;;2.47;100.00
75136;BME280;63707;52.212;9.540;2023-03-04T07:13:50;100531.31;;;2.44;100.00
75136;BME280;63707;52.212;9.540;2023-03-04T07:16:20;100526.19;;;2.51;100.00
75136;BME280;63707;52.212;9.540;2023-03-04T07:18:46;100536.09;;;2.50;100.00
75136;BME280;63707;52.212;9.540;2023-03-04T07:21:13;100536.41;;;2.47;100.00
75136;BME280;63707;52.212;9.540;2023-03-04T07:23:39;100535.56;;;2.47;100.00
75136;BME280;63707;52.212;9.540;2023-03-04T07:26:05;100541.22;;;2.44;100.00
75136;BME280;63707;52.212;9.540;2023-03-04T07:28:31;100533.84;;;2.46;100.00
75136;BME280;63707;52.212;9.540;2023-03-04T07:31:04;100527.06;;;2.51;100.00
75136;BME280;63707;52.212;9.540;2023-03-04T07:33:33;100536.38;;;2.57;100.00
75136;BME280;63707;52.212;9.540;2023-03-04T07:35:58;100533.25;;;2.62;100.00
75136;BME280;63707;52.212;9.540;2023-03-04T07:38:24;100539.06;;;2.67;100.00
75136;BME280;63707;52.212;9.540;2023-03-04T07:40:54;100534.94;;;2.72;100.00
75136;BME280;63707;52.212;9.540;2023-03-04T07:43:19;100534.66;;;2.75;100.00
75136;BME280;63707;52.212;9.540;2023-03-04T07:45:45;100540.31;;;2.72;100.00
75136;BME280;63707;52.212;9.540;2023-03-04T07:48:10;100533.81;;;2.65;100.00
75136;BME280;63707;52.212;9.540;2023-03-04T07:50:37;100538.91;;;2.68;100.00
75136;BME280;63707;52.212;9.540;2023-03-04T07:53:03;100537.06;;;2.69;100.00
75136;BME280;63707;52.212;9.540;2023-03-04T07:55:28;100553.59;;;2.83;100.00
75136;BME280;63707;52.212;9.540;2023-03-04T07:57:56;100536.22;;;2.88;100.00
75136;BME280;63707;52.212;9.540;2023-03-04T08:00:22;100536.91;;;2.80;100.00
75136;BME280;63707;52.212;9.540;2023-03-04T08:02:47;100528.53;;;2.83;100.00
75136;BME280;63707;52.212;9.540;2023-03-04T08:05:13;100527.00;;;2.80;100.00
75136;BME280;63707;52.212;9.540;2023-03-04T08:07:40;100525.16;;;2.91;100.00
75136;BME280;63707;52.212;9.540;2023-03-04T08:10:06;100531.78;;;2.96;100.00
75136;BME280;63707;52.212;9.540;2023-03-04T08:12:32;100528.13;;;2.88;100.00
75136;BME280;63707;52.212;9.540;2023-03-04T08:14:58;100528.00;;;2.89;100.00
75136;BME280;63707;52.212;9.540;2023-03-04T08:17:23;100526.16;;;2.90;100.00
75136;BME280;63707;52.212;9.540;2023-03-04T08:19:49;100520.88;;;2.98;100.00
75136;BME280;63707;52.212;9.540;2023-03-04T08:22:14;100530.16;;;3.13;100.00
75136;BME280;63707;52.212;9.540;2023-03-04T08:24:42;100520.69;;;3.09;100.00
75136;BME280;63707;52.212;9.540;2023-03-04T08:27:07;100511.44;;;3.21;100.00
75136;BME280;63707;52.212;9.540;2023-03-04T08:29:33;100505.03;;;3.22;100.00
75136;BME280;63707;52.212;9.540;2023-03-04T08:31:58;100511.06;;;3.43;100.00
75136;BME280;63707;52.212;9.540;2023-03-04T08:34:25;100513.00;;;3.51;100.00
75136;BME280;63707;52.212;9.540;2023-03-04T08:36:51;100519.63;;;3.29;100.00
75136;BME280;63707;52.212;9.540;2023-03-04T08:39:17;100520.19;;;3.33;100.00
75136;BME280;63707;52.212;9.540;2023-03-04T08:41:45;100519.19;;;3.34;100.00
75136;BME280;63707;52.212;9.540;2023-03-04T08:44:11;100525.00;;;3.29;100.00
75136;BME280;63707;52.212;9.540;2023-03-04T08:46:37;100522.75;;;3.34;100.00
75136;BME280;63707;52.212;9.540;2023-03-04T08:49:03;100531.53;;;3.36;100.00
75136;BME280;63707;52.212;9.540;2023-03-04T08:51:29;100526.16;;;3.27;100.00
75136;BME280;63707;52.212;9.540;2023-03-04T08:53:55;100516.91;;;3.39;100.00
75136;BME280;63707;52.212;9.540;2023-03-04T08:56:20;100523.00;;;3.41;100.00
75136;BME280;63707;52.212;9.540;2023-03-04T08:58:47;100525.44;;;3.34;100.00
75136;BME280;63707;52.212;9.540;2023-03-04T09:01:13;100526.56;;;3.32;100.00
75136;BME280;63707;52.212;9.540;2023-03-04T09:03:39;100523.16;;;3.30;100.00
75136;BME280;63707;52.212;9.540;2023-03-04T09:06:06;100534.34;;;3.35;100.00
75136;BME280;63707;52.212;9.540;2023-03-04T09:08:32;100525.69;;;3.41;100.00
75136;BME280;63707;52.212;9.540;2023-03-04T09:10:58;100528.22;;;3.42;100.00
75136;BME280;63707;52.212;9.540;2023-03-04T09:13:24;100524.97;;;3.39;100.00
75136;BME280;63707;52.212;9.540;2023-03-04T09:15:51;100518.50;;;3.22;100.00
75136;BME280;63707;52.212;9.540;2023-03-04T09:18:18;100516.38;;;3.26;100.00
75136;BME280;63707;52.212;9.540;2023-03-04T09:20:44;100519.34;;;3.32;100.00
75136;BME280;63707;52.212;9.540;2023-03-04T09:23:11;100524.72;;;3.32;100.00
75136;BME280;63707;52.212;9.540;2023-03-04T09:25:37;100520.00;;;3.44;100.00
75136;BME280;63707;52.212;9.540;2023-03-04T09:28:03;100523.44;;;3.36;100.00
75136;BME280;63707;52.212;9.540;2023-03-04T09:30:29;100527.03;;;3.55;100.00
75136;BME280;63707;52.212;9.540;2023-03-04T09:32:56;100525.72;;;3.59;100.00
75136;BME280;63707;52.212;9.540;2023-03-04T09:35:21;100525.28;;;3.63;100.00
75136;BME280;63707;52.212;9.540;2023-03-04T09:37:47;100531.13;;;3.59;100.00
75136;BME280;63707;52.212;9.540;2023-03-04T09:40:17;100532.47;;;3.45;100.00
75136;BME280;63707;52.212;9.540;2023-03-04T09:42:46;100520.09;;;3.52;100.00
75136;BME280;63707;52.212;9.540;2023-03-04T09:45:16;100525.31;;;3.54;100.00
75136;BME280;63707;52.212;9.540;2023-03-04T09:47:43;100529.88;;;3.53;100.00
75136;BME280;63707;52.212;9.540;2023-03-04T09:50:11;100538.56;;;3.47;100.00
75136;BME280;63707;52.212;9.540;2023-03-04T09:52:48;100527.63;;;3.48;100.00
75136;BME280;63707;52.212;9.540;2023-03-04T09:55:21;100533.34;;;3.63;100.00
75136;BME280;63707;52.212;9.540;2023-03-04T09:57:51;100530.28;;;3.86;100.00
75136;BME280;63707;52.212;9.540;2023-03-04T10:00:20;100536.38;;;4.05;100.00
75136;BME280;63707;52.212;9.540;2023-03-04T10:03:03;100533.28;;;4.18;100.00
75136;BME280;63707;52.212;9.540;2023-03-04T10:05:31;100531.91;;;4.50;100.00
75136;BME280;63707;52.212;9.540;2023-03-04T10:08:02;100520.50;;;4.38;100.00
75136;BME280;63707;52.212;9.540;2023-03-04T10:10:35;100516.59;;;4.32;100.00
75136;BME280;63707;52.212;9.540;2023-03-04T10:13:05;100532.94;;;4.31;100.00
75136;BME280;63707;52.212;9.540;2023-03-04T10:15:37;100507.69;;;4.22;100.00
75136;BME280;63707;52.212;9.540;2023-03-04T10:18:12;100526.75;;;4.21;100.00
75136;BME280;63707;52.212;9.540;2023-03-04T10:20:51;100521.03;;;4.06;100.00
75136;BME280;63707;52.212;9.540;2023-03-04T10:23:21;100512.25;;;4.22;100.00
75136;BME280;63707;52.212;9.540;2023-03-04T10:25:49;100515.63;;;4.24;100.00
75136;BME280;63707;52.212;9.540;2023-03-04T10:28:20;100511.47;;;4.11;100.00
75136;BME280;63707;52.212;9.540;2023-03-04T10:30:50;100518.66;;;4.03;100.00
75136;BME280;63707;52.212;9.540;2023-03-04T10:33:19;100510.94;;;4.08;100.00
75136;BME280;63707;52.212;9.540;2023-03-04T10:35:49;100510.88;;;4.00;100.00
75136;BME280;63707;52.212;9.540;2023-03-04T10:38:19;100508.56;;;4.05;100.00
75136;BME280;63707;52.212;9.540;2023-03-04T10:40:45;100508.31;;;4.16;100.00
75136;BME280;63707;52.212;9.540;2023-03-04T10:43:16;100513.88;;;4.15;100.00
75136;BME280;63707;52.212;9.540;2023-03-04T10:45:41;100504.84;;;4.24;100.00
75136;BME280;63707;52.212;9.540;2023-03-04T10:48:17;100508.63;;;4.49;100.00
75136;BME280;63707;52.212;9.540;2023-03-04T10:50:43;100510.78;;;4.45;100.00
75136;BME280;63707;52.212;9.540;2023-03-04T10:53:24;100501.78;;;4.80;100.00
75136;BME280;63707;52.212;9.540;2023-03-04T10:55:52;100509.59;;;4.65;100.00
75136;BME280;63707;52.212;9.540;2023-03-04T10:58:19;100513.66;;;4.43;100.00
75136;BME280;63707;52.212;9.540;2023-03-04T11:00:57;100521.44;;;4.29;100.00
75136;BME280;63707;52.212;9.540;2023-03-04T11:03:28;100510.41;;;4.22;100.00
75136;BME280;63707;52.212;9.540;2023-03-04T11:06:04;100512.03;;;4.15;100.00
75136;BME280;63707;52.212;9.540;2023-03-04T11:08:32;100511.72;;;4.18;100.00
75136;BME280;63707;52.212;9.540;2023-03-04T11:10:57;100505.16;;;4.21;100.00
75136;BME280;63707;52.212;9.540;2023-03-04T11:13:24;100506.63;;;4.15;100.00
75136;BME280;63707;52.212;9.540;2023-03-04T11:15:52;100499.06;;;4.19;100.00
75136;BME280;63707;52.212;9.540;2023-03-04T11:18:22;100503.16;;;4.40;100.00
75136;BME280;63707;52.212;9.540;2023-03-04T11:20:51;100496.13;;;4.48;100.00
75136;BME280;63707;52.212;9.540;2023-03-04T11:23:21;100501.72;;;4.72;100.00
75136;BME280;63707;52.212;9.540;2023-03-04T11:25:53;100503.38;;;4.91;100.00
75136;BME280;63707;52.212;9.540;2023-03-04T11:28:23;100502.50;;;5.16;100.00
75136;BME280;63707;52.212;9.540;2023-03-04T11:30:53;100491.09;;;6.55;100.00
75136;BME280;63707;52.212;9.540;2023-03-04T11:33:24;100481.78;;;6.82;100.00
75136;BME280;63707;52.212;9.540;2023-03-04T11:35:57;100478.75;;;6.53;100.00
75136;BME280;63707;52.212;9.540;2023-03-04T11:38:28;100475.34;;;6.51;100.00
75136;BME280;63707;52.212;9.540;2023-03-04T11:41:02;100483.47;;;6.35;100.00
75136;BME280;63707;52.212;9.540;2023-03-04T11:43:32;100489.19;;;5.57;100.00
75136;BME280;63707;52.212;9.540;2023-03-04T11:49:38;100495.56;;;4.62;100.00
75136;BME280;63707;52.212;9.540;2023-03-04T11:52:18;100500.19;;;4.69;100.00
75136;BME280;63707;52.212;9.540;2023-03-04T11:54:58;100482.22;;;4.78;100.00
75136;BME280;63707;52.212;9.540;2023-03-04T11:57:33;100482.47;;;6.19;100.00
75136;BME280;63707;52.212;9.540;2023-03-04T12:00:16;100479.28;;;7.28;100.00
75136;BME280;63707;52.212;9.540;2023-03-04T12:02:58;100462.25;;;8.12;100.00
75136;BME280;63707;52.212;9.540;2023-03-04T12:05:30;100453.03;;;9.41;100.00
75136;BME280;63707;52.212;9.540;2023-03-04T12:08:13;100454.50;;;7.39;100.00
75136;BME280;63707;52.212;9.540;2023-03-04T12:10:48;100469.41;;;6.88;100.00
75136;BME280;63707;52.212;9.540;2023-03-04T12:13:41;100468.94;;;6.44;100.00
75136;BME280;63707;52.212;9.540;2023-03-04T12:16:26;100467.97;;;5.78;100.00
75136;BME280;63707;52.212;9.540;2023-03-04T12:19:05;100467.56;;;5.57;100.00
75136;BME280;63707;52.212;9.540;2023-03-04T12:21:53;100465.38;;;5.60;100.00
75136;BME280;63707;52.212;9.540;2023-03-04T12:24:31;100459.97;;;5.18;100.00
75136;BME280;63707;52.212;9.540;2023-03-04T12:27:01;100459.91;;;5.36;100.00
75136;BME280;63707;52.212;9.540;2023-03-04T12:29:35;100458.22;;;5.35;100.00
75136;BME280;63707;52.212;9.540;2023-03-04T12:32:10;100453.53;;;5.53;100.00
75136;BME280;63707;52.212;9.540;2023-03-04T12:34:52;100457.22;;;6.03;100.00
75136;BME280;63707;52.212;9.540;2023-03-04T12:37:49;100437.47;;;7.22;100.00
75136;BME280;63707;52.212;9.540;2023-03-04T12:40:29;100425.56;;;8.16;100.00
75136;BME280;63707;52.212;9.540;2023-03-04T12:43:04;100444.38;;;6.61;100.00
75136;BME280;63707;52.212;9.540;2023-03-04T12:45:39;100443.06;;;6.41;100.00
75136;BME280;63707;52.212;9.540;2023-03-04T12:48:18;100437.31;;;6.28;100.00
75136;BME280;63707;52.212;9.540;2023-03-04T12:50:57;100424.41;;;6.71;100.00
75136;BME280;63707;52.212;9.540;2023-03-04T12:53:29;100428.22;;;7.01;100.00
75136;BME280;63707;52.212;9.540;2023-03-04T12:55:59;100423.78;;;6.36;100.00